TimeCDT,TemperatureF,Dew PointF,Humidity,Sea Level PressureIn,VisibilityMPH,Wind Direction,Wind SpeedMPH,Gust SpeedMPH,PrecipitationIn,Events,Conditions,WindDirDegrees,DateUTC
12:53 AM,51.1,43.0,74,30.01,10.0,ENE,3.5,-,N/A,,Clear,60,2012-11-01 05:53:00
1:53 AM,46.0,42.1,86,30.02,10.0,Calm,Calm,-,N/A,,Partly Cloudy,0,2012-11-01 06:53:00
2:53 AM,45.0,42.1,90,30.03,10.0,Calm,Calm,-,N/A,,Partly Cloudy,0,2012-11-01 07:53:00
3:53 AM,44.1,41.0,89,30.02,10.0,Calm,Calm,-,N/A,,Partly Cloudy,0,2012-11-01 08:53:00
4:53 AM,46.4,42.8,87,30.03,10.0,Calm,Calm,-,N/A,,Partly Cloudy,0,2012-11-01 09:53:00
5:53 AM,45.0,41.0,86,30.03,10.0,NE,3.5,-,N/A,,Partly Cloudy,40,2012-11-01 10:53:00
6:53 AM,48.0,41.0,77,30.03,10.0,Calm,Calm,-,N/A,,Clear,0,2012-11-01 11:53:00
7:53 AM,46.0,41.0,83,30.04,10.0,Calm,Calm,-,N/A,,Clear,0,2012-11-01 12:53:00
8:53 AM,55.0,41.0,59,30.04,10.0,Calm,Calm,-,N/A,,Clear,0,2012-11-01 13:53:00
9:53 AM,60.1,42.1,51,30.04,10.0,ESE,3.5,-,N/A,,Partly Cloudy,120,2012-11-01 14:53:00
10:53 AM,66.9,44.1,44,30.03,10.0,SE,5.8,-,N/A,,Partly Cloudy,140,2012-11-01 15:53:00
11:53 AM,75.0,44.1,33,30.00,10.0,South,8.1,17.3,N/A,,Clear,170,2012-11-01 16:53:00
12:53 PM,78.8,44.6,30,29.98,10.0,SSW,9.2,-,N/A,,Clear,200,2012-11-01 17:53:00
1:53 PM,79.0,45.0,30,29.93,10.0,South,10.4,16.1,N/A,,Clear,180,2012-11-01 18:53:00
2:53 PM,81.0,45.0,28,29.91,10.0,SW,12.7,-,N/A,,Clear,220,2012-11-01 19:53:00
3:53 PM,81.0,46.0,29,29.91,10.0,SW,8.1,-,N/A,,Clear,220,2012-11-01 20:53:00
4:53 PM,82.0,45.0,27,29.89,7.0,Calm,Calm,-,N/A,,Clear,0,2012-11-01 21:53:00
5:53 PM,80.1,48.0,32,29.89,10.0,Calm,Calm,-,N/A,,Clear,0,2012-11-01 22:53:00
6:53 PM,69.1,50.0,51,29.91,10.0,NNE,4.6,-,N/A,,Clear,30,2012-11-01 23:53:00
7:53 PM,64.9,48.9,56,29.92,10.0,NE,3.5,-,N/A,,Partly Cloudy,50,2012-11-02 00:53:00
8:53 PM,62.1,48.0,60,29.92,10.0,NNE,6.9,-,N/A,,Mostly Cloudy,20,2012-11-02 01:53:00
9:53 PM,57.0,48.0,72,29.93,10.0,Calm,Calm,-,N/A,,Clear,0,2012-11-02 02:53:00
10:53 PM,63.0,48.9,60,29.92,10.0,ESE,5.8,-,N/A,,Clear,120,2012-11-02 03:53:00
11:53 PM,61.0,48.0,62,29.91,9.0,Calm,Calm,-,N/A,,Clear,0,2012-11-02 04:53:00